Baldwin, Georgia
Current Conditions -  °F | °C
As of 7:15 AM on Sunday 23 Nov 2014 (Local Time) from KTOC Reporting Station
Drizzle Drizzle  
Wind Chill: 41°   Ceiling: 1300
Heat Index: 45°   Visibility: 10mi
Dew Point: 43°   Wind: 6mph
Humidity: 95%   Direction: 50°NE
Pressure: 30.13"   Gusts: NA
Location:  34.49°N, 83.54°W
Report Text: KTOC 231215Z AUTO 05005KT 10SM DZ OVC013 07/06 A3013 RMK AO2 T00700062
Loading
Personal Weather Stations






























Interactive Weather Map New forecast layout! Learn more

10-Day Weather Forecast

Advertisements
Track Severe Weather on mobile